Time;durP1;ratioP1;P1;durP2;ratioP2;P2;SDS_P1;SDS_P2;PMS_P1;PMS_P2;Temp;Humidity;BMP_temperature;BMP_pressure;BME280_temperature;BME280_humidity;BME280_pressure;Samples;Min_cycle;Max_cycle;Signal;HPM_P1;HPM_P2
2022/03/14 00:01:53;;;;;;;10.30;8.55;;;5.40;58.80;;;;;;5011792;28;20022;-72
2022/03/14 00:04:19;;;;;;;10.50;8.88;;;5.40;59.00;;;;;;5013269;28;20102;-72
2022/03/14 00:06:48;;;;;;;13.18;9.02;;;5.40;58.70;;;;;;5011285;28;20105;-72
2022/03/14 00:09:14;;;;;;;11.25;9.00;;;5.40;58.90;;;;;;4992254;28;20030;-72
2022/03/14 00:11:40;;;;;;;9.77;8.63;;;5.50;58.50;;;;;;4993224;28;20032;-72
2022/03/14 00:14:08;;;;;;;13.63;9.05;;;5.50;58.50;;;;;;5001173;28;20395;-74
2022/03/14 00:16:41;;;;;;;11.40;8.75;;;5.40;58.60;;;;;;4997397;28;20551;-76
2022/03/14 00:19:07;;;;;;;13.20;9.10;;;5.30;59.00;;;;;;5003491;28;20018;-74
2022/03/14 00:21:38;;;;;;;10.70;9.55;;;5.30;58.70;;;;;;4999505;28;20024;-73
2022/03/14 00:24:04;;;;;;;12.82;9.02;;;5.40;58.70;;;;;;5011568;28;20065;-74
2022/03/14 00:26:30;;;;;;;13.43;9.63;;;5.30;58.90;;;;;;5007560;28;20022;-74
2022/03/14 00:28:55;;;;;;;11.10;9.07;;;5.30;59.20;;;;;;5002415;28;20101;-74
2022/03/14 00:31:22;;;;;;;13.70;9.57;;;5.20;59.00;;;;;;4999481;28;20602;-74
2022/03/14 00:33:47;;;;;;;14.20;9.65;;;5.20;59.10;;;;;;5001117;28;20066;-73
2022/03/14 00:36:13;;;;;;;12.20;9.43;;;5.20;59.20;;;;;;5006319;28;20068;-73
2022/03/14 00:38:39;;;;;;;11.43;8.77;;;4.90;60.30;;;;;;5002037;28;20041;-74
2022/03/14 00:41:06;;;;;;;11.73;9.63;;;4.90;60.20;;;;;;4999387;28;20494;-74
2022/03/14 00:43:33;;;;;;;13.15;9.45;;;4.90;60.30;;;;;;5001476;28;20018;-74
2022/03/14 00:45:58;;;;;;;11.70;9.68;;;4.90;60.30;;;;;;4996576;28;20033;-74
2022/03/14 00:48:24;;;;;;;13.32;8.85;;;4.90;60.70;;;;;;5001146;28;20030;-74
2022/03/14 00:50:51;;;;;;;13.60;10.23;;;4.50;61.50;;;;;;5005875;28;20026;-73
2022/03/14 00:53:16;;;;;;;12.02;9.50;;;4.40;61.80;;;;;;5004532;28;20480;-73
2022/03/14 00:55:42;;;;;;;11.18;9.60;;;4.40;61.50;;;;;;5007039;28;20022;-73
2022/03/14 00:58:07;;;;;;;10.73;9.55;;;4.60;61.30;;;;;;4992716;28;20105;-73
2022/03/14 01:00:34;;;;;;;11.30;9.13;;;4.40;61.20;;;;;;5005736;28;20026;-73
2022/03/14 01:02:59;;;;;;;11.05;9.82;;;4.60;61.20;;;;;;5004408;28;20030;-73
2022/03/14 01:05:26;;;;;;;11.82;9.55;;;4.50;60.70;;;;;;4999154;28;20455;-72
2022/03/14 01:07:51;;;;;;;10.30;8.85;;;4.70;60.70;;;;;;5000364;28;20030;-73
2022/03/14 01:10:17;;;;;;;11.88;9.43;;;4.60;60.60;;;;;;5003977;28;20392;-72
2022/03/14 01:12:42;;;;;;;10.68;9.20;;;4.50;60.80;;;;;;4992567;28;20057;-74
2022/03/14 01:15:09;;;;;;;10.88;8.98;;;4.50;61.00;;;;;;5005595;28;20477;-73
2022/03/14 01:17:35;;;;;;;11.85;9.50;;;4.50;60.90;;;;;;4992351;28;20057;-74
2022/03/14 01:20:00;;;;;;;12.07;9.88;;;4.40;61.10;;;;;;4997670;28;20648;-73
2022/03/14 01:22:26;;;;;;;12.45;9.32;;;4.40;60.90;;;;;;5000120;28;20481;-73
2022/03/14 01:24:51;;;;;;;12.10;9.40;;;4.30;62.20;;;;;;5010951;28;20100;-74
2022/03/14 01:27:17;;;;;;;10.50;9.38;;;4.10;62.30;;;;;;4998966;28;20018;-74
2022/03/14 01:29:43;;;;;;;11.68;9.23;;;4.10;62.00;;;;;;5005476;28;20457;-74
2022/03/14 01:32:10;;;;;;;10.77;9.23;;;4.10;62.00;;;;;;5003742;28;20037;-75
2022/03/14 01:34:35;;;;;;;10.50;9.27;;;4.10;61.90;;;;;;5010540;28;20026;-74
2022/03/14 01:37:02;;;;;;;10.95;9.45;;;4.10;62.20;;;;;;5011848;28;20423;-76
2022/03/14 01:39:28;;;;;;;10.23;9.20;;;4.20;62.40;;;;;;4993172;28;20104;-75
2022/03/14 01:41:56;;;;;;;10.10;9.05;;;4.00;62.60;;;;;;5002604;28;20472;-73
2022/03/14 01:44:21;;;;;;;10.52;9.43;;;3.90;62.90;;;;;;4998686;28;20028;-73
2022/03/14 01:46:47;;;;;;;12.45;9.52;;;3.80;63.90;;;;;;4999209;28;20038;-74
2022/03/14 01:49:13;;;;;;;13.65;10.25;;;3.60;65.60;;;;;;4990778;28;20034;-74
2022/03/14 01:51:40;;;;;;;13.10;9.63;;;3.40;65.70;;;;;;5003547;28;20054;-75
2022/03/14 01:54:07;;;;;;;12.65;10.18;;;3.40;66.30;;;;;;4998294;28;20026;-75
2022/03/14 01:56:34;;;;;;;10.60;9.10;;;3.30;66.10;;;;;;5000227;28;20065;-74
2022/03/14 01:59:00;;;;;;;12.43;9.60;;;3.30;65.70;;;;;;5004045;28;20030;-74
2022/03/14 02:01:26;;;;;;;13.50;9.40;;;3.00;67.60;;;;;;5003359;28;20384;-74
2022/03/14 02:03:51;;;;;;;11.40;9.23;;;3.00;67.60;;;;;;4998412;28;20024;-75
2022/03/14 02:06:18;;;;;;;12.35;10.52;;;2.90;67.50;;;;;;5000322;28;20157;-74
2022/03/14 02:08:44;;;;;;;12.43;9.93;;;2.80;68.40;;;;;;5005030;28;20488;-76
2022/03/14 02:11:10;;;;;;;10.63;9.43;;;2.70;68.80;;;;;;5003286;28;20092;-74
2022/03/14 02:13:35;;;;;;;12.02;9.93;;;2.60;69.20;;;;;;4997246;28;20029;-73
2022/03/14 02:16:01;;;;;;;11.27;9.73;;;2.60;68.40;;;;;;5001873;28;20124;-73
2022/03/14 02:18:27;;;;;;;12.75;9.93;;;2.40;68.70;;;;;;5008869;28;20041;-74
2022/03/14 02:20:53;;;;;;;12.10;9.52;;;2.50;69.20;;;;;;5006728;28;20458;-73
2022/03/14 02:23:18;;;;;;;11.32;9.52;;;2.40;68.80;;;;;;5002150;28;20096;-73
2022/03/14 02:25:53;;;;;;;11.48;9.30;;;2.20;70.10;;;;;;5003955;28;20113;-73
2022/03/14 02:28:21;;;;;;;11.10;9.75;;;2.20;70.20;;;;;;5001284;28;20064;-73
2022/03/14 02:30:47;;;;;;;11.02;9.65;;;2.30;70.00;;;;;;5002312;28;20044;-75
2022/03/14 02:33:12;;;;;;;12.50;10.30;;;2.40;69.70;;;;;;5008740;28;20481;-74
2022/03/14 02:35:41;;;;;;;12.20;9.43;;;2.20;70.50;;;;;;5008062;28;20029;-74
2022/03/14 02:38:15;;;;;;;13.57;10.40;;;2.10;70.90;;;;;;5001806;28;20567;-74
2022/03/14 02:40:45;;;;;;;12.32;10.13;;;2.20;70.60;;;;;;5000523;28;20044;-75
2022/03/14 02:43:15;;;;;;;11.73;9.82;;;2.10;71.50;;;;;;5006992;28;20374;-74
2022/03/14 02:45:43;;;;;;;10.77;9.65;;;2.00;72.10;;;;;;4997565;28;20034;-75
2022/03/14 02:48:09;;;;;;;11.85;9.68;;;1.90;72.00;;;;;;5005711;28;20018;-76
2022/03/14 02:50:38;;;;;;;10.85;9.68;;;1.90;71.90;;;;;;5007187;28;20523;-75
2022/03/14 02:53:04;;;;;;;10.20;9.10;;;1.80;71.90;;;;;;5004438;28;20109;-75
2022/03/14 02:55:29;;;;;;;10.40;9.30;;;1.80;71.80;;;;;;5001565;28;20093;-75
2022/03/14 02:57:55;;;;;;;11.93;10.10;;;1.70;71.80;;;;;;5003842;28;20550;-75
2022/03/14 03:00:20;;;;;;;10.40;9.23;;;1.80;71.50;;;;;;5007962;28;20496;-75
2022/03/14 03:02:46;;;;;;;10.95;9.40;;;1.50;73.30;;;;;;5004247;28;20022;-76
2022/03/14 03:05:11;;;;;;;13.02;10.25;;;1.60;74.10;;;;;;4999191;28;20076;-75
2022/03/14 03:07:39;;;;;;;11.50;10.02;;;1.50;73.90;;;;;;4993709;28;20023;-75
2022/03/14 03:10:06;;;;;;;10.77;9.73;;;1.60;74.50;;;;;;5006709;28;20022;-74
2022/03/14 03:12:37;;;;;;;13.05;10.07;;;1.50;74.10;;;;;;5003719;28;20112;-74
2022/03/14 03:15:04;;;;;;;13.80;9.98;;;1.60;73.50;;;;;;5001066;28;20017;-74
2022/03/14 03:17:29;;;;;;;13.75;10.27;;;1.60;73.30;;;;;;5002838;28;20027;-76
2022/03/14 03:19:55;;;;;;;10.77;9.68;;;1.50;73.60;;;;;;4994419;28;20036;-75
2022/03/14 03:22:20;;;;;;;11.00;9.55;;;1.50;74.10;;;;;;5002919;28;20026;-73
2022/03/14 03:24:46;;;;;;;13.13;10.25;;;1.50;74.10;;;;;;4997855;28;20031;-74
2022/03/14 03:27:11;;;;;;;13.52;10.32;;;1.50;74.10;;;;;;5004264;28;20109;-74
2022/03/14 03:29:37;;;;;;;11.43;9.60;;;1.50;73.50;;;;;;5000844;28;20025;-74
2022/03/14 03:32:03;;;;;;;12.73;10.30;;;1.60;73.10;;;;;;5002684;28;20026;-74
2022/03/14 03:34:28;;;;;;;12.15;10.10;;;1.70;72.60;;;;;;5010726;28;20443;-74
2022/03/14 03:36:53;;;;;;;11.07;9.98;;;1.80;73.00;;;;;;5013858;28;20025;-74
2022/03/14 03:39:19;;;;;;;12.25;10.52;;;1.60;74.10;;;;;;5000604;28;20061;-74
2022/03/14 03:41:45;;;;;;;13.93;10.75;;;1.60;72.80;;;;;;5004187;28;20022;-74
2022/03/14 03:44:10;;;;;;;11.93;10.65;;;1.60;73.20;;;;;;5008803;28;20527;-74
2022/03/14 03:46:36;;;;;;;11.93;10.05;;;1.40;75.10;;;;;;5013755;28;20030;-75
2022/03/14 03:49:02;;;;;;;13.85;11.88;;;1.30;74.80;;;;;;5000280;28;20030;-74
2022/03/14 03:51:28;;;;;;;17.20;12.93;;;1.50;73.30;;;;;;5002505;28;20022;-74
2022/03/14 03:53:53;;;;;;;19.05;17.00;;;1.40;74.10;;;;;;5005917;28;20031;-74
2022/03/14 03:56:19;;;;;;;15.20;13.32;;;1.30;73.90;;;;;;5002024;28;20041;-74
2022/03/14 03:58:44;;;;;;;15.88;14.15;;;1.20;75.90;;;;;;5000312;28;20033;-75
2022/03/14 04:01:10;;;;;;;16.88;15.07;;;1.20;76.10;;;;;;5002547;28;20503;-75
2022/03/14 04:03:36;;;;;;;16.98;14.25;;;1.20;74.60;;;;;;5006747;28;20116;-74
2022/03/14 04:06:02;;;;;;;15.13;13.45;;;1.20;75.70;;;;;;5003263;28;20084;-76
2022/03/14 04:08:30;;;;;;;16.23;13.43;;;1.30;75.00;;;;;;4998730;28;20018;-74
2022/03/14 04:10:56;;;;;;;15.23;12.82;;;1.30;75.10;;;;;;5013113;28;20026;-74
2022/03/14 04:13:24;;;;;;;15.07;13.45;;;1.20;76.50;;;;;;4998726;28;20029;-75
2022/03/14 04:15:54;;;;;;;14.55;12.38;;;1.10;77.70;;;;;;5001927;28;20056;-76
2022/03/14 04:18:22;;;;;;;13.80;11.80;;;1.10;76.30;;;;;;5010327;28;20125;-73
2022/03/14 04:20:48;;;;;;;13.48;11.52;;;1.20;75.90;;;;;;5012659;28;20026;-73
2022/03/14 04:23:17;;;;;;;14.23;11.32;;;1.20;75.50;;;;;;4999779;28;20022;-74
2022/03/14 04:25:44;;;;;;;16.45;11.60;;;1.20;76.80;;;;;;5002534;28;20390;-74
2022/03/14 04:28:10;;;;;;;13.77;11.63;;;1.20;76.80;;;;;;5006573;28;20018;-74
2022/03/14 04:30:36;;;;;;;13.65;12.23;;;1.20;77.30;;;;;;5003808;28;20052;-74
2022/03/14 04:33:02;;;;;;;13.98;11.60;;;1.20;77.30;;;;;;4999547;28;20061;-73
2022/03/14 04:35:27;;;;;;;11.77;10.55;;;1.10;77.30;;;;;;5001146;28;20081;-73
2022/03/14 04:37:53;;;;;;;12.18;10.80;;;1.00;77.20;;;;;;5005536;28;20035;-73
2022/03/14 04:40:19;;;;;;;12.65;11.38;;;1.20;76.70;;;;;;5003252;28;20052;-74
2022/03/14 04:42:45;;;;;;;12.73;11.05;;;1.20;76.50;;;;;;4998144;28;20018;-74
2022/03/14 04:45:10;;;;;;;14.80;11.45;;;1.10;76.40;;;;;;5012626;28;20032;-74
2022/03/14 04:47:36;;;;;;;13.68;10.93;;;1.10;76.00;;;;;;5012481;28;20029;-74
2022/03/14 04:50:03;;;;;;;12.70;11.23;;;1.00;76.30;;;;;;5001570;28;20018;-75
2022/03/14 04:52:29;;;;;;;13.73;12.20;;;1.10;77.00;;;;;;5010358;28;20080;-75
2022/03/14 04:54:56;;;;;;;14.95;12.60;;;1.00;76.70;;;;;;5001292;28;20425;-74
2022/03/14 04:57:22;;;;;;;13.85;12.32;;;0.80;77.10;;;;;;5005867;28;20109;-75
2022/03/14 04:59:47;;;;;;;14.15;11.93;;;0.90;78.20;;;;;;5004015;28;20118;-73
2022/03/14 05:02:13;;;;;;;14.10;12.60;;;1.10;77.60;;;;;;4997827;28;20029;-74
2022/03/14 05:04:38;;;;;;;15.38;12.45;;;1.30;76.80;;;;;;4999658;28;20061;-73
2022/03/14 05:07:07;;;;;;;13.52;12.10;;;1.10;77.80;;;;;;5005889;28;20022;-73
2022/03/14 05:09:33;;;;;;;15.80;12.65;;;1.30;77.50;;;;;;5003941;28;20045;-74
2022/03/14 05:11:58;;;;;;;20.95;16.48;;;1.20;78.60;;;;;;5010707;28;20385;-74
2022/03/14 05:14:24;;;;;;;18.38;13.73;;;1.10;78.60;;;;;;5012178;28;20026;-74
2022/03/14 05:16:49;;;;;;;15.25;12.00;;;1.10;79.10;;;;;;4999058;28;20052;-73
2022/03/14 05:19:15;;;;;;;17.40;14.10;;;1.20;79.50;;;;;;5001369;28;20030;-72
2022/03/14 05:21:40;;;;;;;17.48;13.73;;;1.00;82.10;;;;;;5005487;28;20033;-73
2022/03/14 05:24:07;;;;;;;17.55;13.15;;;0.70;85.80;;;;;;5002258;28;20072;-74
2022/03/14 05:26:32;;;;;;;16.20;13.20;;;0.90;85.20;;;;;;4997721;28;20460;-74
2022/03/14 05:28:58;;;;;;;18.20;13.30;;;1.10;84.80;;;;;;4999691;28;20109;-74
2022/03/14 05:31:23;;;;;;;16.50;14.25;;;1.30;82.70;;;;;;5005537;28;20105;-75
2022/03/14 05:33:49;;;;;;;15.65;13.70;;;1.40;82.60;;;;;;5003247;28;20024;-74
2022/03/14 05:36:15;;;;;;;162.52;120.22;;;1.50;81.40;;;;;;4993155;28;20077;-74
2022/03/14 05:38:40;;;;;;;59.20;41.53;;;1.50;81.70;;;;;;5002910;28;20116;-74
2022/03/14 05:41:06;;;;;;;28.60;21.27;;;1.60;81.80;;;;;;4997289;28;20029;-75
2022/03/14 05:43:36;;;;;;;48.67;40.63;;;1.60;82.00;;;;;;5011875;28;20085;-76
2022/03/14 05:46:06;;;;;;;23.38;16.48;;;1.50;82.40;;;;;;5006505;28;20114;-75
2022/03/14 05:48:33;;;;;;;25.60;22.60;;;1.50;84.00;;;;;;5004493;28;20037;-75
2022/03/14 05:50:59;;;;;;;19.13;16.48;;;1.60;84.10;;;;;;5000248;28;20037;-75
2022/03/14 05:53:25;;;;;;;18.88;15.93;;;1.80;82.40;;;;;;5003284;28;20077;-74
2022/03/14 05:55:50;;;;;;;17.67;15.80;;;1.70;84.20;;;;;;5009296;28;20037;-75
2022/03/14 05:58:16;;;;;;;18.70;16.00;;;1.80;84.70;;;;;;5007396;28;20030;-75
2022/03/14 06:00:41;;;;;;;13.95;12.55;;;1.80;83.50;;;;;;5002059;28;20443;-74
2022/03/14 06:03:07;;;;;;;15.77;12.48;;;1.80;84.10;;;;;;5014236;28;20030;-74
2022/03/14 06:05:32;;;;;;;17.73;12.93;;;1.90;83.40;;;;;;5015433;28;20030;-73
2022/03/14 06:07:58;;;;;;;16.08;12.95;;;1.80;85.20;;;;;;5014060;28;20504;-74
2022/03/14 06:10:25;;;;;;;16.83;12.88;;;1.90;85.80;;;;;;4996178;28;20035;-75
2022/03/14 06:12:51;;;;;;;17.10;14.80;;;1.90;85.60;;;;;;5008601;28;20107;-75
2022/03/14 06:15:16;;;;;;;16.88;13.18;;;2.00;85.50;;;;;;5000876;28;20508;-74
2022/03/14 06:17:43;;;;;;;16.63;12.73;;;2.10;85.20;;;;;;5002958;28;20525;-74
2022/03/14 06:20:11;;;;;;;15.70;13.20;;;2.10;86.20;;;;;;4999969;28;20116;-74
2022/03/14 06:22:46;;;;;;;15.27;13.15;;;2.10;86.20;;;;;;5002743;28;20027;-73
2022/03/14 06:25:13;;;;;;;18.52;13.98;;;2.20;87.40;;;;;;4995683;28;20073;-73
2022/03/14 06:27:39;;;;;;;18.52;13.60;;;2.10;88.30;;;;;;5007273;28;20033;-74
2022/03/14 06:30:06;;;;;;;17.52;13.88;;;2.30;88.10;;;;;;5002896;28;20025;-73
2022/03/14 06:32:37;;;;;;;20.70;16.40;;;2.40;89.00;;;;;;5000661;28;20552;-74
2022/03/14 06:35:04;;;;;;;20.73;17.67;;;2.30;90.00;;;;;;4995812;28;20045;-74
2022/03/14 06:37:30;;;;;;;21.10;17.85;;;2.30;90.30;;;;;;4996965;28;20033;-74
2022/03/14 06:39:56;;;;;;;24.80;18.48;;;2.20;92.50;;;;;;5005388;28;20034;-73
2022/03/14 06:42:22;;;;;;;21.17;17.48;;;2.30;93.40;;;;;;5008511;28;20472;-73
2022/03/14 06:44:50;;;;;;;23.23;17.83;;;2.20;94.10;;;;;;4994434;28;20026;-74
2022/03/14 06:47:21;;;;;;;22.25;18.95;;;2.20;95.90;;;;;;5009633;28;20080;-74
2022/03/14 06:49:46;;;;;;;20.73;17.88;;;2.30;97.30;;;;;;5005268;28;20057;-74
2022/03/14 06:52:13;;;;;;;26.70;21.55;;;2.40;98.70;;;;;;5006913;28;20082;-74
2022/03/14 06:54:39;;;;;;;71.35;54.10;;;2.40;98.70;;;;;;5003519;28;20029;-74
2022/03/14 06:57:08;;;;;;;94.40;73.47;;;2.40;99.90;;;;;;5001390;28;20026;-73
2022/03/14 06:59:35;;;;;;;35.15;27.13;;;2.40;99.90;;;;;;5004816;28;20504;-73
2022/03/14 07:02:01;;;;;;;25.60;20.05;;;2.60;99.90;;;;;;5006025;28;20033;-73
2022/03/14 07:04:27;;;;;;;23.00;18.60;;;2.40;99.90;;;;;;5004590;28;20108;-73
2022/03/14 07:06:53;;;;;;;23.92;20.38;;;2.60;99.90;;;;;;5001179;28;20025;-74
2022/03/14 07:09:19;;;;;;;20.90;17.10;;;2.60;99.90;;;;;;5004483;28;20031;-73
2022/03/14 07:11:44;;;;;;;25.00;18.20;;;2.60;99.90;;;;;;5007668;28;20033;-74
2022/03/14 07:14:10;;;;;;;22.98;17.17;;;2.60;99.90;;;;;;5003293;28;20120;-73
2022/03/14 07:16:36;;;;;;;20.58;18.30;;;2.70;99.90;;;;;;4997950;28;20033;-73
2022/03/14 07:19:01;;;;;;;20.58;18.33;;;2.90;99.90;;;;;;5003999;28;20034;-73
2022/03/14 07:21:29;;;;;;;20.02;17.40;;;2.90;99.90;;;;;;5000772;28;20026;-73
2022/03/14 07:23:56;;;;;;;23.48;16.77;;;3.00;99.90;;;;;;5003729;28;20026;-73
2022/03/14 07:26:22;;;;;;;19.33;16.05;;;3.00;99.90;;;;;;5006407;28;20498;-73
2022/03/14 07:28:48;;;;;;;19.40;16.58;;;3.20;99.90;;;;;;5004604;28;20392;-73
2022/03/14 07:31:16;;;;;;;19.55;16.92;;;3.10;99.90;;;;;;4999386;28;20022;-73
2022/03/14 07:33:43;;;;;;;20.50;17.00;;;3.00;99.90;;;;;;5003538;28;20026;-73
2022/03/14 07:36:10;;;;;;;20.83;17.77;;;3.00;99.90;;;;;;4998611;28;20030;-73
2022/03/14 07:38:35;;;;;;;22.00;18.83;;;2.90;99.90;;;;;;5010344;28;20034;-73
2022/03/14 07:41:01;;;;;;;21.08;17.92;;;2.90;99.90;;;;;;5009284;28;20034;-73
2022/03/14 07:43:26;;;;;;;20.45;18.25;;;3.10;99.90;;;;;;5004994;28;20026;-73
2022/03/14 07:45:52;;;;;;;26.60;20.15;;;3.00;99.90;;;;;;5013611;28;20435;-73
2022/03/14 07:48:17;;;;;;;28.35;20.35;;;3.00;99.90;;;;;;5001869;28;20085;-73
2022/03/14 07:50:43;;;;;;;25.05;21.15;;;2.90;99.90;;;;;;5007153;28;20031;-73
2022/03/14 07:53:09;;;;;;;26.98;20.05;;;2.90;99.90;;;;;;5002998;28;20028;-73
2022/03/14 07:55:35;;;;;;;30.13;23.40;;;3.00;99.90;;;;;;4998963;28;20084;-73
2022/03/14 07:58:00;;;;;;;25.75;20.30;;;2.90;99.90;;;;;;5003632;28;20504;-73
2022/03/14 08:00:26;;;;;;;26.88;21.25;;;3.00;99.90;;;;;;5005653;28;20030;-72
2022/03/14 08:02:51;;;;;;;25.27;20.95;;;2.90;99.90;;;;;;4992650;28;20022;-73
2022/03/14 08:05:23;;;;;;;29.45;23.13;;;2.90;99.90;;;;;;4996927;28;20022;-73
2022/03/14 08:07:49;;;;;;;28.85;23.65;;;2.90;99.90;;;;;;5002935;28;20025;-73
2022/03/14 08:10:17;;;;;;;26.60;23.02;;;3.00;99.90;;;;;;5010219;28;20480;-72
2022/03/14 08:12:51;;;;;;;27.13;23.27;;;3.00;99.90;;;;;;5002101;28;20084;-73
2022/03/14 08:15:26;;;;;;;25.55;22.67;;;2.90;99.90;;;;;;5006845;28;20034;-73
2022/03/14 08:17:54;;;;;;;27.13;22.50;;;3.00;99.90;;;;;;5006503;28;20026;-74
2022/03/14 08:20:20;;;;;;;28.98;23.00;;;3.20;99.90;;;;;;4999847;28;20072;-74
2022/03/14 08:22:47;;;;;;;27.42;22.27;;;3.00;99.90;;;;;;4999914;28;20022;-75
2022/03/14 08:25:13;;;;;;;24.15;21.55;;;3.00;99.90;;;;;;5006045;28;20027;-75
2022/03/14 08:27:39;;;;;;;26.67;23.05;;;3.10;99.90;;;;;;4993627;28;20057;-74
2022/03/14 08:30:05;;;;;;;27.75;24.75;;;3.20;99.90;;;;;;5012862;28;20026;-75
2022/03/14 08:32:33;;;;;;;27.77;24.00;;;3.30;99.90;;;;;;4999395;28;20235;-74
2022/03/14 08:35:07;;;;;;;28.15;25.02;;;3.30;99.90;;;;;;5004786;28;20034;-74
2022/03/14 08:37:42;;;;;;;26.02;23.05;;;3.40;99.90;;;;;;5005983;28;20026;-74
2022/03/14 08:40:09;;;;;;;29.65;25.13;;;3.50;99.90;;;;;;4993127;28;20052;-74
2022/03/14 08:42:36;;;;;;;28.83;23.23;;;3.70;99.90;;;;;;5006232;28;20058;-74
2022/03/14 08:45:03;;;;;;;28.00;23.92;;;3.80;99.90;;;;;;5013523;28;20115;-74
2022/03/14 08:47:28;;;;;;;29.85;24.25;;;3.90;99.90;;;;;;5010967;28;20425;-74
2022/03/14 08:49:54;;;;;;;29.30;24.60;;;3.90;99.90;;;;;;5003456;28;20148;-74
2022/03/14 08:52:19;;;;;;;32.33;26.83;;;4.10;99.90;;;;;;4997705;28;20029;-74
2022/03/14 08:54:45;;;;;;;31.10;26.77;;;4.20;99.90;;;;;;5001023;28;20113;-73
2022/03/14 08:57:11;;;;;;;26.65;23.75;;;4.40;99.90;;;;;;5005800;28;20274;-73
2022/03/14 08:59:37;;;;;;;29.67;25.23;;;4.50;99.90;;;;;;5001679;28;20037;-73
2022/03/14 09:02:02;;;;;;;27.73;24.40;;;4.90;99.90;;;;;;4999295;28;20022;-74
2022/03/14 09:04:28;;;;;;;26.92;24.02;;;4.80;99.90;;;;;;5001427;28;20022;-73
2022/03/14 09:06:54;;;;;;;28.30;25.15;;;5.10;99.90;;;;;;4992825;28;20022;-73
2022/03/14 09:09:20;;;;;;;23.92;20.90;;;5.20;99.90;;;;;;4999515;28;20549;-75
2022/03/14 09:11:45;;;;;;;24.02;21.48;;;5.30;99.90;;;;;;5003831;28;20125;-73
2022/03/14 09:14:11;;;;;;;22.10;19.80;;;5.60;99.90;;;;;;5002183;28;20041;-74
2022/03/14 09:16:37;;;;;;;24.20;21.10;;;5.70;99.90;;;;;;4997915;28;20025;-73
2022/03/14 09:19:03;;;;;;;27.02;23.90;;;5.80;99.90;;;;;;5001270;28;20570;-73
2022/03/14 09:21:29;;;;;;;24.98;22.33;;;5.60;99.90;;;;;;4994776;28;20022;-73
2022/03/14 09:23:55;;;;;;;23.30;20.65;;;5.40;99.90;;;;;;5001154;28;20034;-73
2022/03/14 09:26:20;;;;;;;26.55;22.65;;;5.30;99.90;;;;;;5008305;28;20392;-73
2022/03/14 09:28:48;;;;;;;29.70;22.88;;;5.30;99.90;;;;;;5011774;28;20148;-73
2022/03/14 09:31:14;;;;;;;28.75;24.23;;;5.30;99.90;;;;;;5010408;28;20026;-73
2022/03/14 09:33:40;;;;;;;26.33;23.50;;;5.30;99.90;;;;;;5010539;28;20030;-73
2022/03/14 09:36:06;;;;;;;28.58;23.88;;;5.40;99.90;;;;;;5010400;28;20376;-73
2022/03/14 09:38:32;;;;;;;30.65;25.08;;;5.40;99.90;;;;;;5010362;28;20037;-73
2022/03/14 09:41:03;;;;;;;29.45;24.08;;;5.30;99.90;;;;;;5010229;28;20554;-73
2022/03/14 09:43:30;;;;;;;28.23;23.42;;;5.40;99.90;;;;;;5011740;28;20076;-73
2022/03/14 09:45:58;;;;;;;27.75;24.85;;;5.40;99.90;;;;;;5024027;28;20422;-73
2022/03/14 09:48:24;;;;;;;24.27;21.40;;;5.50;99.90;;;;;;5011706;28;20037;-74
2022/03/14 09:50:51;;;;;;;27.40;23.35;;;5.60;99.90;;;;;;4993469;28;20022;-74
2022/03/14 09:53:18;;;;;;;29.67;25.42;;;5.90;99.90;;;;;;4998790;28;20031;-73
2022/03/14 09:55:46;;;;;;;29.65;26.33;;;6.00;99.90;;;;;;4991941;28;20022;-74
2022/03/14 09:58:13;;;;;;;29.00;24.42;;;6.10;99.90;;;;;;4990664;28;20034;-74
2022/03/14 10:00:39;;;;;;;31.15;25.77;;;6.10;99.90;;;;;;4991674;28;20034;-74
2022/03/14 10:03:05;;;;;;;26.13;22.80;;;6.00;99.90;;;;;;4991957;28;20019;-74
2022/03/14 10:05:31;;;;;;;29.83;24.30;;;6.10;99.90;;;;;;4990599;28;20050;-74
2022/03/14 10:07:57;;;;;;;24.17;21.45;;;6.10;99.90;;;;;;4990658;28;20022;-74
2022/03/14 10:10:22;;;;;;;26.15;23.20;;;6.00;99.90;;;;;;4991685;28;20033;-73
2022/03/14 10:12:57;;;;;;;27.02;23.13;;;6.10;99.90;;;;;;4991820;28;20384;-73
2022/03/14 10:15:25;;;;;;;26.77;22.58;;;6.20;99.90;;;;;;4991976;28;20515;-73
2022/03/14 10:17:54;;;;;;;24.67;22.00;;;6.10;99.90;;;;;;4991582;28;20030;-73
2022/03/14 10:20:24;;;;;;;28.67;24.30;;;6.00;99.90;;;;;;4991578;28;20070;-73
2022/03/14 10:22:50;;;;;;;36.42;29.20;;;6.00;99.90;;;;;;4990478;28;20473;-73
2022/03/14 10:25:18;;;;;;;27.02;24.23;;;6.00;99.90;;;;;;4990558;28;20022;-73
2022/03/14 10:27:51;;;;;;;23.38;20.65;;;5.90;99.90;;;;;;5004334;28;20025;-73
2022/03/14 10:30:30;;;;;;;29.00;24.30;;;5.90;99.90;;;;;;5001439;28;20027;-74
2022/03/14 10:33:12;;;;;;;28.27;23.95;;;5.90;99.90;;;;;;5009746;28;20447;-74
2022/03/14 10:35:39;;;;;;;25.23;22.52;;;5.90;99.90;;;;;;4998237;28;20030;-74
2022/03/14 10:38:07;;;;;;;30.10;24.20;;;5.90;99.90;;;;;;5007579;28;20049;-73
2022/03/14 10:40:35;;;;;;;29.15;24.58;;;5.80;99.90;;;;;;5006752;28;20077;-74
2022/03/14 10:43:01;;;;;;;28.83;24.25;;;5.90;99.90;;;;;;4995263;28;20031;-74
2022/03/14 10:45:30;;;;;;;31.27;25.23;;;5.90;99.90;;;;;;5009168;28;20026;-74
2022/03/14 10:47:57;;;;;;;34.28;28.35;;;6.20;99.90;;;;;;5002664;28;20033;-74
2022/03/14 10:50:34;;;;;;;28.70;24.63;;;5.90;99.90;;;;;;5001346;28;20447;-73
2022/03/14 10:53:02;;;;;;;32.03;26.85;;;6.00;99.90;;;;;;5005953;28;20041;-73
2022/03/14 10:55:45;;;;;;;24.17;20.85;;;6.00;99.90;;;;;;5000965;28;20480;-73
2022/03/14 10:58:11;;;;;;;27.88;22.63;;;6.10;99.90;;;;;;5001489;28;20477;-73
2022/03/14 11:00:59;;;;;;;26.08;21.42;;;6.10;99.90;;;;;;4999603;28;20050;-73
2022/03/14 11:03:24;;;;;;;22.83;18.83;;;6.20;99.90;;;;;;5000814;28;20022;-74
2022/03/14 11:05:51;;;;;;;22.75;17.30;;;6.20;99.90;;;;;;5006214;28;20021;-73
2022/03/14 11:08:33;;;;;;;23.60;17.85;;;6.30;99.90;;;;;;5011440;28;20022;-73
2022/03/14 11:11:02;;;;;;;17.80;14.40;;;6.10;99.90;;;;;;4996388;28;20030;-73
2022/03/14 11:13:27;;;;;;;19.63;14.80;;;6.10;99.90;;;;;;4999685;28;20040;-73
2022/03/14 11:15:53;;;;;;;19.25;15.00;;;6.10;99.90;;;;;;5008881;28;20448;-73
2022/03/14 11:18:19;;;;;;;17.35;13.70;;;6.10;99.90;;;;;;5001693;28;20033;-73
2022/03/14 11:20:46;;;;;;;19.60;13.35;;;6.20;99.90;;;;;;5001260;28;20393;-73
2022/03/14 11:23:14;;;;;;;14.32;10.35;;;6.20;99.90;;;;;;5004865;28;20044;-73
2022/03/14 11:25:44;;;;;;;15.82;11.27;;;6.30;99.90;;;;;;5002477;28;20023;-73
2022/03/14 11:28:14;;;;;;;15.98;10.05;;;6.30;99.90;;;;;;5004556;28;20026;-73
2022/03/14 11:30:42;;;;;;;14.68;10.18;;;6.20;99.90;;;;;;5003827;28;20038;-73
2022/03/14 11:33:08;;;;;;;23.52;14.63;;;6.20;99.90;;;;;;5007595;28;20030;-73
2022/03/14 11:35:34;;;;;;;13.43;9.57;;;6.20;99.90;;;;;;5006208;28;20022;-73
2022/03/14 11:38:00;;;;;;;11.88;7.35;;;6.30;99.90;;;;;;5003309;28;20617;-74
2022/03/14 11:40:27;;;;;;;12.80;7.00;;;6.10;99.90;;;;;;4999177;28;20029;-74
2022/03/14 11:42:53;;;;;;;11.93;6.63;;;6.00;99.90;;;;;;5004086;28;20037;-74
2022/03/14 11:45:19;;;;;;;16.10;7.90;;;6.00;99.90;;;;;;5003614;28;20023;-74
2022/03/14 11:47:46;;;;;;;10.43;5.07;;;6.00;99.90;;;;;;5001090;28;20065;-74
2022/03/14 11:50:11;;;;;;;10.70;5.07;;;5.90;99.90;;;;;;5004537;28;20029;-73
2022/03/14 11:52:41;;;;;;;13.57;5.90;;;5.90;99.90;;;;;;4999211;28;20037;-73
2022/03/14 11:55:21;;;;;;;11.65;5.70;;;5.90;99.90;;;;;;5009455;28;20102;-73
2022/03/14 11:57:47;;;;;;;13.02;6.10;;;6.00;99.90;;;;;;5006590;28;20117;-73
2022/03/14 12:00:25;;;;;;;10.52;6.13;;;6.10;99.90;;;;;;4999004;28;20097;-73
2022/03/14 12:02:56;;;;;;;13.23;7.00;;;6.20;99.90;;;;;;5001800;28;20026;-73
2022/03/14 12:05:42;;;;;;;14.98;6.93;;;6.30;99.90;;;;;;5002647;28;20621;-73
2022/03/14 12:08:29;;;;;;;15.38;6.60;;;6.40;99.90;;;;;;4998595;28;20035;-73
2022/03/14 12:10:55;;;;;;;11.77;6.70;;;6.60;99.90;;;;;;5001558;28;20470;-73
2022/03/14 12:13:41;;;;;;;13.52;7.53;;;6.60;99.90;;;;;;4998272;28;20068;-73
2022/03/14 12:16:40;;;;;;;13.85;6.97;;;6.50;99.90;;;;;;5002284;28;20032;-73
2022/03/14 12:19:25;;;;;;;15.07;6.30;;;6.50;99.90;;;;;;5003445;28;20057;-74
2022/03/14 12:21:54;;;;;;;11.38;5.22;;;6.50;99.90;;;;;;5006389;28;20026;-74
2022/03/14 12:24:42;;;;;;;12.40;5.45;;;6.50;99.90;;;;;;5010198;28;20057;-74
2022/03/14 12:27:33;;;;;;;14.20;5.35;;;6.50;99.90;;;;;;4996322;28;20516;-74
2022/03/14 12:30:00;;;;;;;17.65;9.90;;;6.50;99.90;;;;;;5008051;28;20101;-74
2022/03/14 12:32:52;;;;;;;12.20;5.78;;;6.40;99.90;;;;;;4999425;28;20163;-74
2022/03/14 12:35:26;;;;;;;14.50;11.05;;;6.40;99.90;;;;;;5002394;28;20400;-74
2022/03/14 12:37:56;;;;;;;10.18;4.75;;;6.40;99.90;;;;;;5011269;28;20018;-73
2022/03/14 12:40:21;;;;;;;8.85;4.72;;;6.40;99.90;;;;;;4999186;28;20117;-73
2022/03/14 12:43:08;;;;;;;8.98;4.85;;;6.50;99.90;;;;;;5011811;28;20105;-74